Time;durP1;ratioP1;P1;durP2;ratioP2;P2;SDS_P1;SDS_P2;PMS_P1;PMS_P2;Temp;Humidity;BMP_temperature;BMP_pressure;BME280_temperature;BME280_humidity;BME280_pressure;Samples;Min_cycle;Max_cycle;Signal;HPM_P1;HPM_P2
2022/03/01 00:01:17;;;;;;;24.67;14.50;;;;;;;3.45;58.45;102781.94;5029843;28;20041;-65
2022/03/01 00:03:43;;;;;;;23.70;14.13;;;;;;;3.40;58.32;102781.34;5026456;28;20044;-65
2022/03/01 00:06:08;;;;;;;26.73;14.60;;;;;;;3.37;58.54;102769.22;5029259;28;20029;-65
2022/03/01 00:08:33;;;;;;;24.30;13.67;;;;;;;3.32;58.62;102773.00;5029137;28;20539;-65
2022/03/01 00:10:59;;;;;;;20.73;13.43;;;;;;;3.31;58.73;102773.91;5031058;28;20061;-65
2022/03/01 00:13:25;;;;;;;22.93;13.77;;;;;;;3.28;58.62;102782.81;5030312;28;20117;-65
2022/03/01 00:15:50;;;;;;;22.30;13.27;;;;;;;3.29;58.85;102774.00;5029399;28;20497;-65
2022/03/01 00:18:15;;;;;;;23.57;13.10;;;;;;;3.29;58.86;102775.78;5028929;28;20536;-65
2022/03/01 00:20:41;;;;;;;22.53;13.50;;;;;;;3.26;58.82;102771.53;5029210;28;20088;-65
2022/03/01 00:23:06;;;;;;;29.20;14.03;;;;;;;3.25;59.06;102772.47;5034520;28;20029;-65
2022/03/01 00:25:31;;;;;;;22.37;13.63;;;;;;;3.25;58.97;102774.22;5030155;28;20029;-65
2022/03/01 00:27:57;;;;;;;21.73;13.33;;;;;;;3.25;59.11;102771.59;5030036;28;20397;-65
2022/03/01 00:30:22;;;;;;;23.80;14.70;;;;;;;3.22;59.11;102775.22;5028128;28;20662;-64
2022/03/01 00:32:47;;;;;;;24.03;14.00;;;;;;;3.21;59.15;102777.94;5028360;28;20109;-65
2022/03/01 00:35:12;;;;;;;21.47;13.60;;;;;;;3.21;59.22;102770.06;5028982;28;20025;-65
2022/03/01 00:37:38;;;;;;;23.97;14.00;;;;;;;3.19;59.08;102770.13;5029374;28;20501;-65
2022/03/01 00:40:04;;;;;;;24.13;13.67;;;;;;;3.16;59.34;102762.38;5028332;28;20029;-65
2022/03/01 00:42:30;;;;;;;22.37;13.00;;;;;;;3.19;59.29;102764.03;5027030;28;20021;-65
2022/03/01 00:44:55;;;;;;;23.50;13.27;;;;;;;3.16;59.25;102764.16;5024558;28;20033;-65
2022/03/01 00:47:20;;;;;;;21.57;13.20;;;;;;;3.13;59.14;102773.03;5028858;28;20025;-64
2022/03/01 00:49:46;;;;;;;26.90;13.40;;;;;;;3.15;59.34;102767.72;5028992;28;20505;-65
2022/03/01 00:52:11;;;;;;;26.93;13.37;;;;;;;3.14;59.24;102777.38;5027420;28;20041;-65
2022/03/01 00:54:36;;;;;;;24.80;14.57;;;;;;;3.11;59.40;102775.75;5022889;28;20029;-66
2022/03/01 00:57:01;;;;;;;22.53;13.20;;;;;;;3.08;59.35;102769.78;5026249;28;20034;-66
2022/03/01 00:59:27;;;;;;;20.47;13.40;;;;;;;3.06;59.44;102776.91;5023867;28;20268;-65
2022/03/01 01:01:52;;;;;;;22.83;13.30;;;;;;;3.02;59.75;102776.19;5029056;28;20489;-65
2022/03/01 01:04:17;;;;;;;21.80;13.93;;;;;;;2.99;59.70;102776.34;5026598;28;20033;-65
2022/03/01 01:06:42;;;;;;;23.63;14.43;;;;;;;2.97;59.69;102769.47;5029487;28;20467;-65
2022/03/01 01:09:10;;;;;;;24.03;13.83;;;;;;;2.98;59.83;102769.41;5027106;28;20037;-65
2022/03/01 01:11:36;;;;;;;25.97;14.80;;;;;;;2.97;60.02;102772.94;5029198;28;20033;-65
2022/03/01 01:14:01;;;;;;;26.20;14.50;;;;;;;2.95;60.10;102773.94;5021432;28;20400;-65
2022/03/01 01:16:26;;;;;;;23.20;14.53;;;;;;;2.92;59.83;102779.34;5028109;28;20108;-65
2022/03/01 01:18:52;;;;;;;23.03;13.90;;;;;;;2.89;60.23;102772.47;5027174;28;20025;-65
2022/03/01 01:21:17;;;;;;;25.47;14.23;;;;;;;2.87;60.10;102768.19;5029101;28;20027;-65
2022/03/01 01:23:42;;;;;;;24.90;14.30;;;;;;;2.86;60.16;102779.63;5029424;28;20349;-65
2022/03/01 01:26:08;;;;;;;23.83;14.53;;;;;;;2.82;60.41;102770.19;5027226;28;20032;-64
2022/03/01 01:28:33;;;;;;;26.27;14.77;;;;;;;2.75;60.37;102773.13;5025393;28;20029;-65
2022/03/01 01:30:59;;;;;;;21.80;13.73;;;;;;;2.76;60.48;102769.56;5025805;28;20049;-65
2022/03/01 01:33:24;;;;;;;25.83;14.87;;;;;;;2.75;60.64;102772.25;5026797;28;20030;-65
2022/03/01 01:35:49;;;;;;;25.93;14.90;;;;;;;2.73;60.76;102771.50;5028134;28;20021;-65
2022/03/01 01:38:15;;;;;;;24.57;14.33;;;;;;;2.70;60.71;102771.63;5028325;28;20022;-65
2022/03/01 01:40:40;;;;;;;26.97;14.67;;;;;;;2.68;60.74;102765.63;5028161;28;20036;-65
2022/03/01 01:43:06;;;;;;;23.37;14.70;;;;;;;2.67;60.76;102766.53;5027733;28;20400;-65
2022/03/01 01:45:32;;;;;;;25.70;14.60;;;;;;;2.66;60.92;102762.22;5027363;28;20029;-65
2022/03/01 01:47:58;;;;;;;28.93;15.07;;;;;;;2.55;60.94;102753.97;5029110;28;20063;-65
2022/03/01 01:50:25;;;;;;;26.53;15.37;;;;;;;2.58;61.15;102761.69;5028489;28;20139;-66
2022/03/01 01:52:52;;;;;;;29.53;15.30;;;;;;;2.54;61.36;102752.28;5028013;28;20021;-65
2022/03/01 01:55:19;;;;;;;25.77;14.40;;;;;;;2.57;61.32;102758.22;5030073;28;20026;-65
2022/03/01 01:57:44;;;;;;;25.33;14.93;;;;;;;2.53;61.43;102756.69;5020962;28;20021;-65
2022/03/01 02:00:10;;;;;;;28.60;15.13;;;;;;;2.54;61.36;102760.16;5027745;28;20150;-65
2022/03/01 02:02:36;;;;;;;27.23;14.97;;;;;;;2.53;61.56;102761.91;5029229;28;20493;-65
2022/03/01 02:05:02;;;;;;;26.43;15.20;;;;;;;2.52;61.71;102757.59;5027793;28;20100;-65
2022/03/01 02:07:28;;;;;;;26.93;15.10;;;;;;;2.54;61.52;102753.13;5028669;28;20397;-65
2022/03/01 02:09:53;;;;;;;28.30;15.37;;;;;;;2.54;61.70;102753.13;5028104;28;20045;-65
2022/03/01 02:12:18;;;;;;;25.13;14.93;;;;;;;2.56;61.71;102763.53;5029170;28;20026;-65
2022/03/01 02:14:44;;;;;;;26.50;15.43;;;;;;;2.56;61.77;102761.78;5025839;28;20143;-65
2022/03/01 02:17:10;;;;;;;25.70;16.20;;;;;;;2.57;62.02;102763.47;5029046;28;20083;-65
2022/03/01 02:19:36;;;;;;;27.77;15.53;;;;;;;2.52;62.49;102762.84;5026175;28;20112;-65
2022/03/01 02:22:02;;;;;;;27.57;15.00;;;;;;;2.52;62.37;102762.84;5024554;28;20021;-66
2022/03/01 02:24:29;;;;;;;26.63;15.23;;;;;;;2.55;62.64;102762.69;5028641;28;20175;-66
2022/03/01 02:27:03;;;;;;;24.20;14.63;;;;;;;2.60;62.58;102762.47;5028796;28;20025;-65
2022/03/01 02:29:29;;;;;;;23.77;14.63;;;;;;;2.62;62.37;102755.41;5027901;28;20389;-65
2022/03/01 02:31:56;;;;;;;27.13;15.50;;;;;;;2.68;62.33;102758.59;5028809;28;20033;-65
2022/03/01 02:34:22;;;;;;;25.93;14.83;;;;;;;2.70;62.25;102755.91;5032467;28;20033;-65
2022/03/01 02:36:48;;;;;;;26.80;14.30;;;;;;;2.72;62.12;102756.66;5031562;28;20039;-65
2022/03/01 02:39:14;;;;;;;24.43;14.90;;;;;;;2.74;61.96;102753.06;5026042;28;20021;-65
2022/03/01 02:41:41;;;;;;;24.20;15.23;;;;;;;2.74;62.08;102750.44;5026528;28;20025;-65
2022/03/01 02:44:07;;;;;;;26.03;15.60;;;;;;;2.72;62.05;102749.66;5027868;28;20112;-65
2022/03/01 02:46:33;;;;;;;26.00;14.67;;;;;;;2.71;61.96;102744.47;5027645;28;20096;-65
2022/03/01 02:48:59;;;;;;;25.70;15.13;;;;;;;2.71;61.90;102741.84;5025143;28;20507;-65
2022/03/01 02:51:24;;;;;;;24.77;15.07;;;;;;;2.68;61.88;102744.63;5027528;28;20025;-66
2022/03/01 02:53:50;;;;;;;27.67;14.43;;;;;;;2.67;61.92;102741.16;5028503;28;20040;-65
2022/03/01 02:56:15;;;;;;;30.30;14.57;;;;;;;2.66;61.73;102731.59;5030341;28;20037;-65
2022/03/01 02:58:40;;;;;;;23.00;13.87;;;;;;;2.69;61.80;102738.47;5029449;28;20021;-66
2022/03/01 03:01:06;;;;;;;26.00;15.20;;;;;;;2.65;61.85;102739.53;5031908;28;20481;-65
2022/03/01 03:03:32;;;;;;;23.17;14.53;;;;;;;2.62;61.71;102737.91;5031355;28;20057;-66
2022/03/01 03:05:57;;;;;;;27.53;15.10;;;;;;;2.61;62.12;102732.75;5031560;28;20052;-65
2022/03/01 03:08:22;;;;;;;27.03;15.03;;;;;;;2.58;61.77;102736.31;5030964;28;20022;-66
2022/03/01 03:10:49;;;;;;;26.07;15.67;;;;;;;2.54;61.76;102732.16;5030977;28;20034;-65
2022/03/01 03:13:14;;;;;;;27.10;15.13;;;;;;;2.54;61.82;102726.06;5030591;28;20055;-65
2022/03/01 03:15:39;;;;;;;27.33;15.50;;;;;;;2.52;61.96;102727.91;5031647;28;20039;-65
2022/03/01 03:18:05;;;;;;;26.73;14.70;;;;;;;2.50;62.06;102727.97;5030714;28;20485;-65
2022/03/01 03:20:30;;;;;;;27.30;15.30;;;;;;;2.49;62.12;102732.38;5030975;28;20447;-66
2022/03/01 03:22:55;;;;;;;24.43;15.13;;;;;;;2.48;62.12;102735.91;5030952;28;20025;-65
2022/03/01 03:25:21;;;;;;;26.80;15.30;;;;;;;2.47;62.19;102726.34;5030041;28;20400;-65
2022/03/01 03:27:46;;;;;;;25.10;15.37;;;;;;;2.44;62.14;102729.13;5031060;28;20029;-65
2022/03/01 03:30:12;;;;;;;25.97;15.33;;;;;;;2.39;62.20;102731.13;5029459;28;20038;-66
2022/03/01 03:32:37;;;;;;;25.83;15.03;;;;;;;2.37;62.31;102722.47;5030643;28;20025;-66
2022/03/01 03:35:04;;;;;;;26.17;15.20;;;;;;;2.37;62.31;102716.38;5031249;28;20060;-65
2022/03/01 03:37:30;;;;;;;24.47;15.63;;;;;;;2.34;62.46;102724.38;5024016;28;20029;-66
2022/03/01 03:39:55;;;;;;;28.77;15.53;;;;;;;2.35;62.55;102726.09;5033020;28;20025;-65
2022/03/01 03:42:20;;;;;;;26.67;15.07;;;;;;;2.35;62.45;102729.56;5030190;28;20029;-65
2022/03/01 03:44:46;;;;;;;28.20;16.73;;;;;;;2.33;62.60;102722.69;5033374;28;20021;-65
2022/03/01 03:47:11;;;;;;;25.97;15.50;;;;;;;2.30;62.59;102725.44;5030143;28;20029;-65
2022/03/01 03:49:37;;;;;;;27.50;15.73;;;;;;;2.32;62.66;102731.47;5029403;28;20149;-64
2022/03/01 03:52:04;;;;;;;24.80;15.57;;;;;;;2.31;62.75;102725.34;5030451;28;20037;-65
2022/03/01 03:54:29;;;;;;;28.60;15.83;;;;;;;2.32;62.58;102726.22;5029502;28;20021;-65
2022/03/01 03:56:55;;;;;;;23.27;14.77;;;;;;;2.32;62.79;102729.69;5030397;28;20029;-65
2022/03/01 03:59:20;;;;;;;23.90;14.83;;;;;;;2.29;62.62;102726.34;5029589;28;20029;-65
2022/03/01 04:01:45;;;;;;;29.07;15.73;;;;;;;2.29;62.72;102724.56;5030301;28;20017;-65
2022/03/01 04:04:11;;;;;;;24.67;14.97;;;;;;;2.31;62.76;102727.13;5030680;28;20044;-65
2022/03/01 04:06:37;;;;;;;28.30;16.27;;;;;;;2.31;62.78;102725.34;5029670;28;20389;-65
2022/03/01 04:09:03;;;;;;;28.43;15.13;;;;;;;2.32;62.91;102716.59;5029049;28;20152;-65
2022/03/01 04:11:29;;;;;;;26.10;15.60;;;;;;;2.31;62.77;102721.88;5030006;28;20022;-65
2022/03/01 04:13:54;;;;;;;27.40;15.33;;;;;;;2.32;62.91;102728.84;5026209;28;20025;-65
2022/03/01 04:16:20;;;;;;;28.70;15.43;;;;;;;2.33;62.76;102722.69;5029363;28;20116;-65
2022/03/01 04:18:45;;;;;;;25.50;15.07;;;;;;;2.35;62.73;102732.19;5029645;28;20022;-65
2022/03/01 04:21:11;;;;;;;26.27;15.37;;;;;;;2.36;62.73;102733.88;5029975;28;20104;-64
2022/03/01 04:23:37;;;;;;;27.17;15.23;;;;;;;2.37;62.73;102737.34;5030094;28;20411;-65
2022/03/01 04:26:04;;;;;;;26.60;14.97;;;;;;;2.41;62.77;102738.91;5030305;28;20036;-65
2022/03/01 04:28:29;;;;;;;24.37;15.60;;;;;;;2.43;62.72;102735.28;5027633;28;20039;-64
2022/03/01 04:30:54;;;;;;;25.40;15.33;;;;;;;2.45;62.55;102740.47;5023485;28;20025;-65
2022/03/01 04:33:20;;;;;;;28.60;16.00;;;;;;;2.45;62.79;102738.69;5029725;28;20119;-65
2022/03/01 04:35:45;;;;;;;27.07;15.23;;;;;;;2.46;62.55;102734.28;5030066;28;20026;-65
2022/03/01 04:38:11;;;;;;;25.67;15.00;;;;;;;2.46;62.50;102739.53;5030038;28;20041;-66
2022/03/01 04:40:37;;;;;;;26.33;15.57;;;;;;;2.45;62.51;102730.81;5028549;28;20025;-66
2022/03/01 04:43:02;;;;;;;27.33;15.07;;;;;;;2.45;62.34;102727.34;5029583;28;20040;-65
2022/03/01 04:45:27;;;;;;;27.83;15.43;;;;;;;2.41;62.56;102721.41;5029266;28;20187;-65
2022/03/01 04:47:53;;;;;;;28.27;15.60;;;;;;;2.45;62.43;102727.34;5029277;28;20104;-65
2022/03/01 04:50:18;;;;;;;23.73;14.73;;;;;;;2.46;62.42;102731.66;5028285;28;20033;-65
2022/03/01 04:52:44;;;;;;;27.23;15.37;;;;;;;2.46;62.17;102734.28;5029773;28;20025;-66
2022/03/01 04:55:10;;;;;;;28.33;15.93;;;;;;;2.47;62.54;102731.59;5030239;28;20036;-66
2022/03/01 04:57:36;;;;;;;26.17;15.10;;;;;;;2.45;62.37;102737.84;5029548;28;20392;-66
2022/03/01 05:00:10;;;;;;;25.33;15.80;;;;;;;2.45;62.46;102730.81;5027470;28;20108;-65
2022/03/01 05:02:35;;;;;;;26.23;15.40;;;;;;;2.46;62.28;102729.06;5026947;28;20025;-66
2022/03/01 05:05:01;;;;;;;30.57;15.53;;;;;;;2.46;62.17;102724.66;5025602;28;20030;-65
2022/03/01 05:07:26;;;;;;;23.93;15.17;;;;;;;2.48;62.24;102722.81;5029214;28;20100;-65
2022/03/01 05:09:51;;;;;;;24.90;15.70;;;;;;;2.48;62.15;102730.69;5028182;28;20035;-65
2022/03/01 05:12:17;;;;;;;24.60;15.47;;;;;;;2.48;62.29;102725.44;5028639;28;20029;-65
2022/03/01 05:14:42;;;;;;;25.83;15.53;;;;;;;2.48;62.30;102727.19;5029641;28;20032;-64
2022/03/01 05:17:08;;;;;;;25.10;15.63;;;;;;;2.48;62.28;102721.97;5028207;28;20035;-65
2022/03/01 05:19:33;;;;;;;25.10;15.40;;;;;;;2.46;62.36;102719.41;5027115;28;20044;-65
2022/03/01 05:21:58;;;;;;;26.97;14.63;;;;;;;2.49;62.30;102714.00;5028916;28;20029;-65
2022/03/01 05:24:23;;;;;;;28.13;15.50;;;;;;;2.51;62.26;102706.06;5029116;28;20037;-66
2022/03/01 05:26:50;;;;;;;29.60;15.57;;;;;;;2.52;62.25;102699.06;5028388;28;20393;-64
2022/03/01 05:29:15;;;;;;;29.53;16.07;;;;;;;2.52;62.11;102697.28;5027205;28;20044;-65
2022/03/01 05:31:40;;;;;;;29.83;16.97;;;;;;;2.53;62.01;102692.88;5028439;28;20029;-65
2022/03/01 05:34:05;;;;;;;29.33;16.80;;;;;;;2.49;62.17;102703.53;5027192;28;20420;-65
2022/03/01 05:36:31;;;;;;;26.57;16.43;;;;;;;2.48;62.05;102701.81;5028600;28;20033;-65
2022/03/01 05:38:56;;;;;;;28.93;15.77;;;;;;;2.45;62.04;102701.97;5028803;28;20461;-65
2022/03/01 05:41:24;;;;;;;29.13;16.90;;;;;;;2.44;62.02;102699.44;5029241;28;20102;-65
2022/03/01 05:43:49;;;;;;;24.93;15.70;;;;;;;2.41;62.09;102697.81;5028128;28;20512;-64
2022/03/01 05:46:14;;;;;;;29.13;16.70;;;;;;;2.41;62.23;102702.19;5026454;28;20041;-65
2022/03/01 05:48:39;;;;;;;28.63;16.30;;;;;;;2.39;62.25;102694.41;5027267;28;20025;-65
2022/03/01 05:51:06;;;;;;;29.03;16.00;;;;;;;2.41;62.06;102702.19;5024757;28;20100;-65
2022/03/01 05:53:31;;;;;;;27.97;15.57;;;;;;;2.39;62.13;102698.81;5028039;28;20502;-65
2022/03/01 05:55:57;;;;;;;27.80;15.70;;;;;;;2.37;62.08;102692.78;5028513;28;20100;-65
2022/03/01 05:58:22;;;;;;;28.10;16.40;;;;;;;2.36;62.10;102691.09;5027573;28;20032;-66
2022/03/01 06:00:47;;;;;;;29.33;15.80;;;;;;;2.35;62.09;102692.00;5028299;28;20535;-65
2022/03/01 06:03:12;;;;;;;25.87;16.03;;;;;;;2.34;62.16;102683.28;5029602;28;20025;-65
2022/03/01 06:05:38;;;;;;;24.73;15.70;;;;;;;2.32;62.14;102687.75;5026285;28;20033;-66
2022/03/01 06:08:03;;;;;;;25.70;15.27;;;;;;;2.33;62.23;102686.00;5027884;28;20484;-65
2022/03/01 06:10:29;;;;;;;26.23;15.57;;;;;;;2.30;62.21;102691.34;5027252;28;20033;-65
2022/03/01 06:12:54;;;;;;;27.80;16.07;;;;;;;2.28;62.25;102693.19;5028180;28;20481;-65
2022/03/01 06:15:20;;;;;;;28.50;15.83;;;;;;;2.24;62.39;102694.25;5028721;28;20061;-65
2022/03/01 06:17:45;;;;;;;26.80;16.13;;;;;;;2.23;62.36;102700.41;5028220;28;20034;-65
2022/03/01 06:20:11;;;;;;;30.07;16.87;;;;;;;2.21;62.53;102697.03;5027421;28;20152;-65
2022/03/01 06:22:38;;;;;;;28.43;17.27;;;;;;;2.23;62.57;102703.03;5027966;28;20028;-65
2022/03/01 06:25:05;;;;;;;30.10;16.90;;;;;;;2.26;62.67;102700.28;5027523;28;20564;-65
2022/03/01 06:27:30;;;;;;;28.73;16.70;;;;;;;2.24;62.74;102691.63;5025630;28;20024;-64
2022/03/01 06:29:55;;;;;;;27.90;17.07;;;;;;;2.23;62.68;102695.19;5026327;28;20104;-65
2022/03/01 06:32:21;;;;;;;26.13;16.47;;;;;;;2.22;62.85;102696.09;5027562;28;20469;-65
2022/03/01 06:34:46;;;;;;;27.83;16.90;;;;;;;2.22;62.85;102698.72;5026737;28;20087;-65
2022/03/01 06:37:15;;;;;;;29.23;16.97;;;;;;;2.22;62.82;102709.22;5027306;28;20025;-65
2022/03/01 06:39:41;;;;;;;28.43;17.57;;;;;;;2.21;62.92;102707.50;5026897;28;20123;-65
2022/03/01 06:42:07;;;;;;;30.03;17.07;;;;;;;2.19;62.92;102707.59;5027661;28;20018;-65
2022/03/01 06:44:32;;;;;;;29.37;17.10;;;;;;;2.18;63.09;102719.84;5028057;28;20670;-65
2022/03/01 06:46:58;;;;;;;31.33;17.17;;;;;;;2.20;63.09;102713.66;5028141;28;20052;-65
2022/03/01 06:49:23;;;;;;;28.37;16.60;;;;;;;2.21;63.25;102713.59;5027438;28;20033;-65
2022/03/01 06:51:48;;;;;;;28.50;16.63;;;;;;;2.22;63.22;102717.91;5027431;28;20041;-65
2022/03/01 06:54:14;;;;;;;29.07;17.27;;;;;;;2.25;63.21;102722.16;5027570;28;20033;-65
2022/03/01 06:56:39;;;;;;;28.87;17.30;;;;;;;2.24;63.11;102723.94;5027078;28;20045;-65
2022/03/01 06:59:04;;;;;;;30.57;17.30;;;;;;;2.26;63.35;102729.97;5026009;28;20032;-65
2022/03/01 07:01:29;;;;;;;29.63;17.57;;;;;;;2.31;63.33;102735.00;5027816;28;20025;-65
2022/03/01 07:03:55;;;;;;;28.53;17.43;;;;;;;2.34;63.16;102734.88;5026040;28;20026;-66
2022/03/01 07:06:20;;;;;;;30.53;17.33;;;;;;;2.38;63.24;102725.94;5026359;28;20103;-65
2022/03/01 07:08:45;;;;;;;28.87;17.70;;;;;;;2.41;63.29;102742.38;5026694;28;20028;-65
2022/03/01 07:11:11;;;;;;;28.97;17.00;;;;;;;2.48;63.29;102742.94;5027152;28;20105;-65
2022/03/01 07:13:36;;;;;;;27.47;17.13;;;;;;;2.56;63.28;102740.78;5026903;28;20021;-65
2022/03/01 07:16:03;;;;;;;30.03;17.87;;;;;;;2.61;63.29;102733.59;5024634;28;20032;-65
2022/03/01 07:18:29;;;;;;;34.67;18.73;;;;;;;2.66;63.28;102734.22;5025891;28;20112;-64
2022/03/01 07:20:54;;;;;;;29.50;17.53;;;;;;;2.68;63.30;102744.63;5023666;28;20729;-65
2022/03/01 07:23:19;;;;;;;30.97;17.43;;;;;;;2.70;63.10;102746.25;5023999;28;20068;-65
2022/03/01 07:25:44;;;;;;;29.00;17.40;;;;;;;2.71;62.99;102739.25;5025526;28;20508;-65
2022/03/01 07:28:10;;;;;;;29.77;17.93;;;;;;;2.73;63.28;102743.47;5026509;28;20033;-65
2022/03/01 07:30:35;;;;;;;31.67;17.60;;;;;;;2.73;62.96;102746.09;5025839;28;20029;-65
2022/03/01 07:33:01;;;;;;;34.13;18.10;;;;;;;2.75;62.89;102744.25;5025461;28;20454;-65
2022/03/01 07:35:27;;;;;;;27.57;17.03;;;;;;;2.80;62.76;102750.13;5025040;28;20053;-65
2022/03/01 07:37:53;;;;;;;29.67;17.63;;;;;;;2.84;63.01;102749.97;5024019;28;20033;-65
2022/03/01 07:40:21;;;;;;;35.30;18.30;;;;;;;2.88;62.92;102752.38;5024965;28;20218;-64
2022/03/01 07:42:47;;;;;;;34.57;18.10;;;;;;;2.91;62.97;102760.13;5027418;28;20120;-65
2022/03/01 07:45:12;;;;;;;29.37;17.77;;;;;;;2.94;62.72;102767.00;5029605;28;20097;-65
2022/03/01 07:47:38;;;;;;;29.47;17.67;;;;;;;2.95;62.60;102759.06;5030847;28;20025;-65
2022/03/01 07:50:06;;;;;;;31.00;17.17;;;;;;;2.96;62.64;102746.78;5029714;28;20040;-65
2022/03/01 07:52:31;;;;;;;30.90;17.17;;;;;;;2.96;62.72;102737.13;5029841;28;20098;-65
2022/03/01 07:54:57;;;;;;;29.97;17.20;;;;;;;2.97;62.69;102733.59;5029415;28;20057;-64
2022/03/01 07:57:22;;;;;;;27.67;16.87;;;;;;;2.94;62.53;102741.59;5029927;28;20503;-65
2022/03/01 07:59:48;;;;;;;28.90;17.40;;;;;;;2.94;62.50;102749.47;5028517;28;20049;-64
2022/03/01 08:02:14;;;;;;;31.50;17.37;;;;;;;2.94;62.67;102739.00;5030433;28;20036;-65
2022/03/01 08:04:41;;;;;;;30.53;17.40;;;;;;;2.96;62.79;102747.63;5030208;28;20037;-65
2022/03/01 08:07:08;;;;;;;32.87;18.27;;;;;;;2.99;62.94;102749.25;5031127;28;20103;-65
2022/03/01 08:09:34;;;;;;;29.40;17.30;;;;;;;3.00;62.78;102764.94;5029539;28;20029;-64
2022/03/01 08:11:59;;;;;;;31.50;17.97;;;;;;;3.01;62.92;102774.50;5028757;28;20032;-65
2022/03/01 08:14:24;;;;;;;33.93;17.60;;;;;;;3.02;62.50;102770.09;5028654;28;20060;-65
2022/03/01 08:16:49;;;;;;;29.10;17.87;;;;;;;3.07;62.70;102774.19;5029649;28;20555;-65
2022/03/01 08:19:15;;;;;;;29.83;17.00;;;;;;;3.12;62.84;102771.34;5031155;28;20027;-65
2022/03/01 08:21:40;;;;;;;32.23;17.57;;;;;;;3.14;62.56;102769.50;5031439;28;20026;-66
2022/03/01 08:24:05;;;;;;;30.50;17.57;;;;;;;3.14;62.61;102771.25;5031669;28;20033;-65
2022/03/01 08:26:32;;;;;;;32.37;18.80;;;;;;;3.20;62.91;102774.47;5029917;28;20065;-65
2022/03/01 08:28:57;;;;;;;29.77;18.27;;;;;;;3.24;62.73;102780.41;5030866;28;20025;-65
2022/03/01 08:31:22;;;;;;;27.67;17.73;;;;;;;3.26;63.03;102784.66;5031272;28;20280;-65
2022/03/01 08:33:48;;;;;;;30.40;18.37;;;;;;;3.29;62.75;102784.50;5026625;28;20133;-66
2022/03/01 08:36:14;;;;;;;28.80;17.83;;;;;;;3.36;63.06;102777.16;5030971;28;20029;-65
2022/03/01 08:38:41;;;;;;;31.20;18.07;;;;;;;3.39;62.82;102775.22;5028977;28;20084;-66
2022/03/01 08:41:06;;;;;;;30.87;17.83;;;;;;;3.46;62.77;102774.91;5026037;28;20500;-66
2022/03/01 08:43:31;;;;;;;31.60;17.97;;;;;;;3.53;62.86;102771.94;5028481;28;20033;-66
2022/03/01 08:45:57;;;;;;;32.23;18.37;;;;;;;3.60;62.89;102780.34;5029010;28;20047;-66
2022/03/01 08:48:22;;;;;;;30.90;18.03;;;;;;;3.62;62.80;102768.81;5026345;28;20021;-66
2022/03/01 08:50:47;;;;;;;33.77;18.23;;;;;;;3.72;62.93;102771.81;5028889;28;20035;-65
2022/03/01 08:53:13;;;;;;;29.67;18.93;;;;;;;3.74;62.56;102783.94;5029246;28;20033;-66
2022/03/01 08:55:39;;;;;;;35.27;19.47;;;;;;;3.85;62.83;102793.09;5028224;28;20032;-66
2022/03/01 08:58:05;;;;;;;31.70;18.73;;;;;;;3.94;62.83;102790.81;5029724;28;20033;-65
2022/03/01 09:00:30;;;;;;;35.07;19.47;;;;;;;4.01;62.78;102793.97;5028197;28;20029;-66
2022/03/01 09:02:56;;;;;;;32.40;18.40;;;;;;;4.07;62.50;102792.81;5029399;28;20037;-66
2022/03/01 09:05:22;;;;;;;36.73;19.53;;;;;;;4.06;62.27;102788.50;5034454;28;20029;-66
2022/03/01 09:07:47;;;;;;;35.63;20.60;;;;;;;4.24;62.44;102801.50;5029155;28;20444;-67
2022/03/01 09:10:13;;;;;;;32.37;18.90;;;;;;;4.34;62.20;102804.50;5024858;28;20630;-66
2022/03/01 09:12:38;;;;;;;34.07;18.70;;;;;;;4.40;61.83;102801.53;5029786;28;20037;-67
2022/03/01 09:15:04;;;;;;;30.33;19.13;;;;;;;4.52;61.55;102792.13;5030027;28;20032;-67
2022/03/01 09:17:30;;;;;;;39.77;19.57;;;;;;;4.55;61.60;102778.81;5029035;28;20029;-65
2022/03/01 09:19:55;;;;;;;32.83;19.03;;;;;;;4.68;61.35;102785.09;5025224;28;20144;-66
2022/03/01 09:22:21;;;;;;;30.10;18.00;;;;;;;4.78;61.20;102774.91;5028015;28;20125;-66
2022/03/01 09:24:46;;;;;;;32.93;18.13;;;;;;;4.83;60.99;102770.22;5025076;28;20072;-67
2022/03/01 09:27:12;;;;;;;34.07;19.23;;;;;;;4.85;60.96;102776.25;5029177;28;20584;-66
2022/03/01 09:29:37;;;;;;;29.00;17.63;;;;;;;4.93;60.95;102781.97;5026338;28;20037;-66
2022/03/01 09:32:03;;;;;;;30.30;17.60;;;;;;;5.00;60.69;102779.81;5029256;28;20037;-67
2022/03/01 09:34:29;;;;;;;29.20;17.30;;;;;;;5.04;60.11;102784.81;5028914;28;20033;-67
2022/03/01 09:36:55;;;;;;;30.07;17.97;;;;;;;5.14;60.29;102787.78;5029628;28;20036;-66
2022/03/01 09:39:21;;;;;;;29.37;18.00;;;;;;;5.21;60.47;102783.88;5026544;28;20030;-66
2022/03/01 09:41:47;;;;;;;30.77;17.67;;;;;;;5.28;60.21;102786.06;5028799;28;20090;-66
2022/03/01 09:44:13;;;;;;;28.10;18.47;;;;;;;5.34;60.03;102792.75;5028515;28;20029;-67
2022/03/01 09:46:38;;;;;;;31.80;18.13;;;;;;;5.40;59.91;102788.91;5028216;28;20021;-66
2022/03/01 09:49:05;;;;;;;28.77;17.20;;;;;;;5.48;59.74;102794.56;5027852;28;20600;-66
2022/03/01 09:51:35;;;;;;;25.83;16.80;;;;;;;5.52;58.69;102804.88;5025603;28;20037;-67
2022/03/01 09:54:00;;;;;;;28.58;16.88;;;;;;;5.53;58.25;102795.19;5025449;28;20033;-66
2022/03/01 09:56:25;;;;;;;28.20;16.90;;;;;;;5.56;58.31;102800.28;5028385;28;20033;-67
2022/03/01 09:58:51;;;;;;;28.97;17.50;;;;;;;5.62;58.29;102796.41;5027872;28;20107;-67
2022/03/01 10:01:18;;;;;;;29.43;17.33;;;;;;;5.67;58.21;102802.25;5024420;28;20393;-67
2022/03/01 10:03:48;;;;;;;31.20;17.87;;;;;;;5.71;57.71;102807.25;5026726;28;20390;-67
2022/03/01 10:06:15;;;;;;;29.63;18.40;;;;;;;5.72;57.36;102806.31;5025117;28;20048;-67
2022/03/01 10:08:41;;;;;;;33.77;19.30;;;;;;;5.78;57.67;102800.72;5025932;28;20420;-66
2022/03/01 10:11:07;;;;;;;28.40;18.07;;;;;;;5.79;57.29;102805.03;5025871;28;20032;-66
2022/03/01 10:13:36;;;;;;;28.53;17.30;;;;;;;5.79;57.15;102815.59;5026636;28;20428;-66
2022/03/01 10:16:13;;;;;;;27.85;17.38;;;;;;;5.82;57.21;102825.09;5026825;28;20060;-66
2022/03/01 10:18:48;;;;;;;32.30;18.70;;;;;;;5.87;57.24;102813.34;5020513;28;20051;-66
2022/03/01 10:21:14;;;;;;;30.23;18.20;;;;;;;5.93;57.33;102806.03;5025636;28;20021;-66
2022/03/01 10:23:46;;;;;;;27.53;16.97;;;;;;;6.01;57.38;102795.84;5030122;28;20036;-67
2022/03/01 10:26:19;;;;;;;29.40;18.07;;;;;;;6.10;57.45;102800.59;5028208;28;20029;-66
2022/03/01 10:28:45;;;;;;;27.90;15.93;;;;;;;6.16;56.82;102801.06;5020816;28;20030;-66
2022/03/01 10:31:12;;;;;;;30.80;17.33;;;;;;;6.22;56.98;102790.13;5025414;28;20108;-66
2022/03/01 10:33:39;;;;;;;27.40;17.20;;;;;;;6.26;56.89;102793.41;5026846;28;20104;-66
2022/03/01 10:36:05;;;;;;;28.77;18.40;;;;;;;6.38;57.02;102794.47;5028371;28;20032;-67
2022/03/01 10:38:30;;;;;;;26.80;16.83;;;;;;;6.43;56.82;102797.66;5026264;28;20036;-66
2022/03/01 10:41:00;;;;;;;27.60;18.03;;;;;;;6.49;56.49;102794.63;5026337;28;20291;-66
2022/03/01 10:43:27;;;;;;;32.27;17.57;;;;;;;6.50;55.88;102791.91;5028210;28;20021;-66
2022/03/01 10:45:53;;;;;;;27.60;18.47;;;;;;;6.60;55.75;102793.94;5027575;28;20045;-66
2022/03/01 10:48:28;;;;;;;28.10;16.77;;;;;;;6.72;55.85;102798.47;5022241;28;20059;-66
2022/03/01 10:51:08;;;;;;;26.03;16.73;;;;;;;6.80;55.60;102791.75;5021502;28;20127;-67
2022/03/01 10:53:42;;;;;;;27.27;17.37;;;;;;;6.89;55.32;102789.44;5026028;28;20022;-67
2022/03/01 10:56:11;;;;;;;30.97;18.17;;;;;;;6.99;55.43;102791.41;5027256;28;20033;-66
2022/03/01 10:58:37;;;;;;;31.27;17.50;;;;;;;7.03;55.10;102803.47;5025780;28;20356;-67
2022/03/01 11:01:04;;;;;;;26.43;16.53;;;;;;;7.12;54.97;102805.50;5025593;28;20071;-66
2022/03/01 11:03:30;;;;;;;31.60;17.37;;;;;;;7.10;55.06;102798.63;5027819;28;20025;-66
2022/03/01 11:05:56;;;;;;;29.77;17.37;;;;;;;7.16;54.02;102811.44;5030038;28;20033;-67
2022/03/01 11:08:25;;;;;;;28.33;17.27;;;;;;;7.10;53.87;102807.41;5027652;28;20538;-66
2022/03/01 11:10:52;;;;;;;27.48;17.50;;;;;;;7.06;54.04;102813.84;5041683;28;20223;-66